Time;durP1;ratioP1;P1;durP2;ratioP2;P2;SDS_P1;SDS_P2;PMS_P1;PMS_P2;Temp;Humidity;BMP_temperature;BMP_pressure;BME280_temperature;BME280_humidity;BME280_pressure;Samples;Min_cycle;Max_cycle;Signal;HPM_P1;HPM_P2
2021/11/23 00:02:12;;;;;;;;;;;;;;;-0.47;77.26;101571.55;1651370;86;20196;-74
2021/11/23 00:04:38;;;;;;;;;;;;;;;-0.52;77.26;101568.68;1651308;86;20172;-73
2021/11/23 00:07:04;;;;;;;;;;;;;;;-0.53;77.33;101568.77;1651473;87;20540;-73
2021/11/23 00:09:29;;;;;;;;;;;;;;;-0.57;77.36;101553.66;1651465;86;20184;-73
2021/11/23 00:11:55;;;;;;;;;;;;;;;-0.60;77.39;101553.77;1651461;86;21337;-74
2021/11/23 00:14:21;;;;;;;;;;;;;;;-0.62;77.44;101555.63;1651497;86;20264;-73
2021/11/23 00:16:47;;;;;;;;;;;;;;;-0.66;77.46;101542.73;1651460;86;20177;-74
2021/11/23 00:19:14;;;;;;;;;;;;;;;-0.67;77.50;101543.18;1651081;87;20774;-73
2021/11/23 00:21:40;;;;;;;;;;;;;;;-0.69;77.52;101539.80;1651329;87;20152;-73
2021/11/23 00:24:06;;;;;;;;;;;;;;;-0.72;77.55;101544.33;1660017;85;21816;-74
2021/11/23 00:26:32;;;;;;;;;;;;;;;-0.75;77.60;101549.25;1655958;85;20443;-74
2021/11/23 00:28:58;;;;;;;;;;;;;;;-0.76;77.64;101549.31;1650867;86;20238;-73
2021/11/23 00:31:23;;;;;;;;;;;;;;;-0.78;77.70;101557.25;1651463;86;20375;-73
2021/11/23 00:33:49;;;;;;;;;;;;;;;-0.81;77.71;101549.51;1651442;87;20222;-74
2021/11/23 00:36:15;;;;;;;;;;;;;;;-0.82;77.78;101552.22;1651405;86;22191;-74
2021/11/23 00:38:45;;;;;;;;;;;;;;;-0.85;77.78;101544.05;1651020;86;20257;-74
2021/11/23 00:41:13;;;;;;;;;;;;;;;-0.88;77.83;101545.47;1651185;85;20181;-74
2021/11/23 00:43:39;;;;;;;;;;;;;;;-0.89;77.86;101549.02;1651608;86;20150;-73
2021/11/23 00:46:05;;;;;;;;;;;;;;;-0.90;77.88;101542.08;1651523;86;20182;-74
2021/11/23 00:48:30;;;;;;;;;;;;;;;-0.92;77.90;101541.31;1651457;87;21346;-74
2021/11/23 00:50:57;;;;;;;;;;;;;;;-0.92;77.93;101541.31;1651428;87;20211;-73
2021/11/23 00:53:23;;;;;;;;;;;;;;;-0.93;77.96;101543.98;1651565;87;20166;-73
2021/11/23 00:55:49;;;;;;;;;;;;;;;-0.93;78.00;101536.13;1651655;86;20212;-73
2021/11/23 00:58:15;;;;;;;;;;;;;;;-0.95;78.04;101536.19;1651626;86;20260;-73
2021/11/23 01:00:40;;;;;;;;;;;;;;;-0.96;78.05;101546.75;1651658;86;21233;-74
2021/11/23 01:03:06;;;;;;;;;;;;;;;-0.97;78.08;101551.13;1651537;86;20456;-73
2021/11/23 01:05:32;;;;;;;;;;;;;;;-0.97;78.11;101544.58;1651554;87;20301;-73
2021/11/23 01:07:58;;;;;;;;;;;;;;;-0.98;78.13;101541.56;1651799;86;20682;-73
2021/11/23 01:10:24;;;;;;;;;;;;;;;-0.97;78.16;101537.19;1651734;86;20189;-73
2021/11/23 01:12:50;;;;;;;;;;;;;;;-0.98;78.19;101538.09;1652100;85;21247;-73
2021/11/23 01:15:15;;;;;;;;;;;;;;;-1.00;78.22;101542.11;1660911;85;20429;-73
2021/11/23 01:17:41;;;;;;;;;;;;;;;-1.02;78.26;101540.00;1660406;84;20219;-73
2021/11/23 01:20:08;;;;;;;;;;;;;;;-1.02;78.26;101542.16;1651542;87;20177;-74
2021/11/23 01:22:34;;;;;;;;;;;;;;;-1.04;78.28;101534.00;1651630;86;20203;-74
2021/11/23 01:25:00;;;;;;;;;;;;;;;-1.05;78.33;101545.37;1651562;86;21304;-74
2021/11/23 01:27:25;;;;;;;;;;;;;;;-1.08;78.32;101535.05;1651544;86;20246;-74
2021/11/23 01:29:51;;;;;;;;;;;;;;;-1.10;78.37;101534.28;1651574;87;20228;-74
2021/11/23 01:32:17;;;;;;;;;;;;;;;-1.14;78.41;101532.71;1652374;86;20187;-74
2021/11/23 01:34:43;;;;;;;;;;;;;;;-1.14;78.43;101524.86;1653161;86;20836;-74
2021/11/23 01:37:09;;;;;;;;;;;;;;;-1.17;78.47;101520.63;1653500;87;21169;-75
2021/11/23 01:39:34;;;;;;;;;;;;;;;-1.18;78.47;101520.67;1653476;87;20204;-74
2021/11/23 01:42:00;;;;;;;;;;;;;;;-1.17;78.48;101526.31;1653165;85;20219;-74
2021/11/23 01:44:26;;;;;;;;;;;;;;;-1.17;78.53;101525.00;1653671;87;20743;-75
2021/11/23 01:46:52;;;;;;;;;;;;;;;-1.17;78.53;101522.38;1653576;87;20252;-75
2021/11/23 01:49:17;;;;;;;;;;;;;;;-1.16;78.56;101524.09;1653566;86;21174;-75
2021/11/23 01:51:43;;;;;;;;;;;;;;;-1.17;78.59;101525.00;1653500;86;20243;-74
2021/11/23 01:54:09;;;;;;;;;;;;;;;-1.17;78.61;101532.85;1653662;86;20263;-75
2021/11/23 01:56:35;;;;;;;;;;;;;;;-1.18;78.65;101520.67;1653712;86;20161;-75
2021/11/23 01:59:02;;;;;;;;;;;;;;;-1.18;78.67;101518.05;1653729;86;20161;-75
2021/11/23 02:01:28;;;;;;;;;;;;;;;-1.18;78.71;101520.67;1653802;87;20853;-74
2021/11/23 02:03:53;;;;;;;;;;;;;;;-1.18;78.74;101519.37;1653506;87;20212;-74
2021/11/23 02:06:19;;;;;;;;;;;;;;;-1.17;78.75;101522.38;1653789;86;20422;-74
2021/11/23 02:08:45;;;;;;;;;;;;;;;-1.15;78.80;101525.77;1653760;87;20188;-74
2021/11/23 02:11:11;;;;;;;;;;;;;;;-1.14;78.79;101524.86;1653810;86;20232;-75
2021/11/23 02:13:37;;;;;;;;;;;;;;;-1.13;78.84;101534.42;1653879;87;21053;-75
2021/11/23 02:16:03;;;;;;;;;;;;;;;-1.13;78.87;101530.49;1653622;87;20268;-74
2021/11/23 02:18:29;;;;;;;;;;;;;;;-1.11;78.88;101539.11;1653494;87;20194;-74
2021/11/23 02:20:55;;;;;;;;;;;;;;;-1.12;78.91;101534.33;1653899;86;20453;-74
2021/11/23 02:23:21;;;;;;;;;;;;;;;-1.13;78.96;101529.19;1653757;87;20197;-74
2021/11/23 02:25:47;;;;;;;;;;;;;;;-1.12;78.98;101528.24;1658218;85;21183;-74
2021/11/23 02:28:13;;;;;;;;;;;;;;;-1.13;79.00;101527.88;1674959;85;20500;-74
2021/11/23 02:30:49;;;;;;;;;;;;;;;-1.13;79.04;101533.11;1679329;84;20754;-74
2021/11/23 02:33:16;;;;;;;;;;;;;;;-1.14;79.09;101525.72;1674147;84;20478;-74
2021/11/23 02:35:42;;;;;;;;;;;;;;;-1.15;79.11;101522.70;1672796;86;20492;-74
2021/11/23 02:38:08;;;;;;;;;;;;;;;-1.13;79.14;101525.26;1672970;85;22034;-74
2021/11/23 02:40:34;;;;;;;;;;;;;;;-1.12;79.16;101523.02;1672514;84;20194;-74
2021/11/23 02:42:59;;;;;;;;;;;;;;;-1.10;79.18;101518.58;1672957;85;20234;-74
2021/11/23 02:45:26;;;;;;;;;;;;;;;-1.08;79.22;101516.73;1672855;85;20183;-74
2021/11/23 02:47:52;;;;;;;;;;;;;;;-1.07;79.24;101515.81;1672603;85;20171;-74
2021/11/23 02:50:18;;;;;;;;;;;;;;;-1.07;79.26;101511.89;1672842;85;21030;-74
2021/11/23 02:52:45;;;;;;;;;;;;;;;-1.05;79.29;101503.50;1672634;86;20172;-74
2021/11/23 02:55:12;;;;;;;;;;;;;;;-1.05;79.32;101502.19;1672812;86;20503;-74
2021/11/23 02:57:38;;;;;;;;;;;;;;;-1.04;79.35;101498.20;1672695;86;20199;-75
2021/11/23 03:00:07;;;;;;;;;;;;;;;-1.01;79.40;101499.83;1662353;85;20257;-75
2021/11/23 03:02:32;;;;;;;;;;;;;;;-0.99;79.42;101498.01;1649217;87;21364;-75
2021/11/23 03:04:59;;;;;;;;;;;;;;;-0.98;79.46;101499.69;1649388;87;20820;-75
2021/11/23 03:07:25;;;;;;;;;;;;;;;-0.97;79.48;101497.47;1649830;87;20154;-75
2021/11/23 03:09:51;;;;;;;;;;;;;;;-0.97;79.52;101501.39;1649519;86;20276;-75
2021/11/23 03:12:22;;;;;;;;;;;;;;;-0.96;79.55;101501.79;1649520;86;20836;-75
2021/11/23 03:14:48;;;;;;;;;;;;;;;-0.95;79.57;101494.79;1649353;87;21975;-75
2021/11/23 03:17:15;;;;;;;;;;;;;;;-0.94;79.61;101499.08;1660999;85;20156;-74
2021/11/23 03:19:41;;;;;;;;;;;;;;;-0.95;79.62;101487.76;1676806;85;20192;-74
2021/11/23 03:22:07;;;;;;;;;;;;;;;-0.92;79.65;101486.34;1676915;85;20747;-74
2021/11/23 03:24:33;;;;;;;;;;;;;;;-0.90;79.68;101491.03;1676868;84;20163;-74
2021/11/23 03:26:59;;;;;;;;;;;;;;;-0.87;79.68;101490.03;1676755;85;21119;-74
2021/11/23 03:29:25;;;;;;;;;;;;;;;-0.86;79.72;101487.36;1676948;85;20233;-75
2021/11/23 03:31:50;;;;;;;;;;;;;;;-0.85;79.73;101482.52;1676579;85;20861;-74
2021/11/23 03:34:16;;;;;;;;;;;;;;;-0.84;79.76;101481.58;1659298;85;20190;-75
2021/11/23 03:36:42;;;;;;;;;;;;;;;-0.80;79.79;101467.42;1671692;85;20253;-75
2021/11/23 03:39:08;;;;;;;;;;;;;;;-0.78;79.80;101462.12;1650994;86;21273;-75
2021/11/23 03:41:34;;;;;;;;;;;;;;;-0.77;79.83;101448.95;1651305;85;20760;-75
2021/11/23 03:44:00;;;;;;;;;;;;;;;-0.74;79.83;101455.83;1651521;86;20190;-74
2021/11/23 03:46:26;;;;;;;;;;;;;;;-0.71;79.87;101458.30;1651503;87;20237;-75
2021/11/23 03:48:52;;;;;;;;;;;;;;;-0.68;79.88;101445.06;1651426;87;20341;-75
2021/11/23 03:51:19;;;;;;;;;;;;;;;-0.66;79.89;101446.67;1651555;87;21161;-75
2021/11/23 03:53:44;;;;;;;;;;;;;;;-0.63;79.92;101443.91;1651383;86;20158;-74
2021/11/23 03:56:12;;;;;;;;;;;;;;;-0.61;79.92;101443.39;1651686;87;20243;-75
2021/11/23 04:01:42;;;;;;;;;;;;;;;-0.59;79.95;101449.39;1700727;83;20181;-73
2021/11/23 04:04:08;;;;;;;;;;;;;;;-0.59;79.96;101444.15;1699938;83;21846;-73
2021/11/23 04:06:34;;;;;;;;;;;;;;;-0.61;79.99;101438.16;1698040;84;20171;-73
2021/11/23 04:08:59;;;;;;;;;;;;;;;-0.62;80.01;101429.89;1688786;83;20800;-73
2021/11/23 04:11:25;;;;;;;;;;;;;;;-0.64;80.03;101431.75;1730253;82;20141;-73
2021/11/23 04:13:51;;;;;;;;;;;;;;;-0.66;80.02;101433.58;1724508;82;20180;-73
2021/11/23 04:16:17;;;;;;;;;;;;;;;-0.67;80.04;101431.88;1712798;83;21885;-73
2021/11/23 04:18:44;;;;;;;;;;;;;;;-0.66;80.06;101421.79;1673388;85;20507;-73
2021/11/23 04:21:10;;;;;;;;;;;;;;;-0.65;80.09;101430.05;1628051;86;20169;-72
2021/11/23 04:23:36;;;;;;;;;;;;;;;-0.63;80.11;101422.95;1663356;86;20185;-73
2021/11/23 04:26:02;;;;;;;;;;;;;;;-0.61;80.11;101430.30;1663719;86;20319;-72
2021/11/23 04:28:27;;;;;;;;;;;;;;;-0.60;80.11;101429.34;1671490;84;22071;-73
2021/11/23 04:30:53;;;;;;;;;;;;;;;-0.61;80.14;101421.13;1671425;86;20254;-73
2021/11/23 04:33:19;;;;;;;;;;;;;;;-0.59;80.16;101424.50;1692483;85;20193;-73
2021/11/23 04:35:45;;;;;;;;;;;;;;;-0.58;80.18;101420.97;1692526;84;20261;-72
2021/11/23 04:38:11;;;;;;;;;;;;;;;-0.59;80.19;101416.65;1692799;83;20209;-73
2021/11/23 04:40:37;;;;;;;;;;;;;;;-0.58;80.21;101419.66;1660324;86;21124;-73
2021/11/23 04:43:05;;;;;;;;;;;;;;;-0.58;80.24;101417.05;1730280;83;20152;-74
2021/11/23 04:45:33;;;;;;;;;;;;;;;-0.58;80.25;101415.73;1710682;82;20158;-73
2021/11/23 04:48:00;;;;;;;;;;;;;;;-0.56;80.28;101413.88;1705515;83;20166;-73
2021/11/23 04:50:25;;;;;;;;;;;;;;;-0.54;80.30;101415.12;1705738;83;20629;-73
2021/11/23 04:52:51;;;;;;;;;;;;;;;-0.55;80.33;101415.58;1694154;84;21833;-73
2021/11/23 04:55:17;;;;;;;;;;;;;;;-0.57;80.37;101409.58;1694615;83;20203;-73
2021/11/23 04:57:43;;;;;;;;;;;;;;;-0.56;80.37;101413.88;1694988;84;20211;-73
2021/11/23 05:00:11;;;;;;;;;;;;;;;-0.55;80.40;101404.25;1700730;81;20190;-73
2021/11/23 05:02:37;;;;;;;;;;;;;;;-0.56;80.42;101406.02;1642224;87;20196;-73
2021/11/23 05:05:04;;;;;;;;;;;;;;;-0.56;80.44;101406.02;1718919;83;21127;-73
2021/11/23 05:07:29;;;;;;;;;;;;;;;-0.55;80.47;101405.10;1718907;83;20185;-73
2021/11/23 05:09:55;;;;;;;;;;;;;;;-0.53;80.49;101402.42;1718843;83;20499;-73
2021/11/23 05:12:21;;;;;;;;;;;;;;;-0.52;80.49;101395.78;1719524;83;20184;-73
2021/11/23 05:14:47;;;;;;;;;;;;;;;-0.48;80.54;101391.70;1641150;87;20205;-73
2021/11/23 05:17:12;;;;;;;;;;;;;;;-0.44;80.58;101380.14;1642469;87;21706;-74
2021/11/23 05:19:38;;;;;;;;;;;;;;;-0.40;80.61;101386.94;1718043;83;20238;-74
2021/11/23 05:22:05;;;;;;;;;;;;;;;-0.38;80.64;101383.77;1714827;83;20278;-74
2021/11/23 05:24:30;;;;;;;;;;;;;;;-0.37;80.66;101377.15;1689249;83;20160;-74
2021/11/23 05:26:56;;;;;;;;;;;;;;;-0.34;80.69;101382.69;1718847;83;20313;-74
2021/11/23 05:29:22;;;;;;;;;;;;;;;-0.33;80.72;101385.70;1717368;83;21069;-74
2021/11/23 05:31:48;;;;;;;;;;;;;;;-0.33;80.72;101383.09;1719479;83;20192;-74
2021/11/23 05:34:13;;;;;;;;;;;;;;;-0.31;80.77;101383.84;1719276;83;20712;-74
2021/11/23 05:36:39;;;;;;;;;;;;;;;-0.29;80.79;101382.02;1717436;83;20831;-74
2021/11/23 05:39:05;;;;;;;;;;;;;;;-0.28;80.84;101392.89;1719050;83;20758;-74
2021/11/23 05:41:31;;;;;;;;;;;;;;;-0.29;80.88;101386.80;1718529;83;21164;-74
2021/11/23 05:43:57;;;;;;;;;;;;;;;-0.27;80.93;101398.49;1630480;87;20200;-74
2021/11/23 05:46:22;;;;;;;;;;;;;;;-0.29;80.94;101390.73;1629092;87;20174;-74
2021/11/23 05:48:48;;;;;;;;;;;;;;;-0.28;80.97;101388.95;1715211;83;20547;-74
2021/11/23 05:51:14;;;;;;;;;;;;;;;-0.25;81.00;101397.97;1715529;83;20270;-74
2021/11/23 05:53:40;;;;;;;;;;;;;;;-0.24;81.02;101406.20;1716657;83;21227;-74
2021/11/23 05:56:06;;;;;;;;;;;;;;;-0.22;81.06;101401.75;1719125;83;20206;-74
2021/11/23 05:58:32;;;;;;;;;;;;;;;-0.20;81.08;101394.64;1726333;82;20218;-74
2021/11/23 06:00:57;;;;;;;;;;;;;;;-0.16;81.11;101398.81;1728531;81;20221;-74
2021/11/23 06:03:23;;;;;;;;;;;;;;;-0.15;81.15;101393.50;1729800;81;20226;-73
2021/11/23 06:05:49;;;;;;;;;;;;;;;-0.11;81.15;101399.44;1720094;82;21093;-73
2021/11/23 06:08:15;;;;;;;;;;;;;;;-0.10;81.18;101384.07;1719784;83;20683;-73
2021/11/23 06:10:41;;;;;;;;;;;;;;;-0.06;81.22;101386.92;1717329;81;20260;-73
2021/11/23 06:13:07;;;;;;;;;;;;;;;-0.04;81.24;101383.78;1719884;82;20221;-74
2021/11/23 06:15:33;;;;;;;;;;;;;;;-0.02;81.29;101382.77;1720463;83;20185;-74
2021/11/23 06:18:02;;;;;;;;;;;;;;;0.04;81.30;101396.02;1715144;82;21196;-74
2021/11/23 06:20:32;;;;;;;;;;;;;;;0.08;81.34;101399.33;1722376;81;20172;-74
2021/11/23 06:22:58;;;;;;;;;;;;;;;0.10;81.37;101393.56;1710141;83;20165;-74
2021/11/23 06:25:24;;;;;;;;;;;;;;;0.14;81.41;101407.72;1715125;81;20438;-74
2021/11/23 06:27:50;;;;;;;;;;;;;;;0.18;81.42;101394.84;1720684;81;20207;-73
2021/11/23 06:30:16;;;;;;;;;;;;;;;0.22;81.45;101399.47;1716070;81;21211;-74
2021/11/23 06:32:42;;;;;;;;;;;;;;;0.26;81.50;101393.98;1720944;82;20717;-74
2021/11/23 06:35:08;;;;;;;;;;;;;;;0.30;81.51;101392.91;1708333;83;20180;-73
2021/11/23 06:37:34;;;;;;;;;;;;;;;0.34;81.55;101394.45;1698060;83;20172;-74
2021/11/23 06:39:59;;;;;;;;;;;;;;;0.38;81.59;101393.36;1708709;83;20156;-74
2021/11/23 06:42:25;;;;;;;;;;;;;;;0.41;81.62;101403.69;1710142;83;21195;-74
2021/11/23 06:44:51;;;;;;;;;;;;;;;0.43;81.66;101395.26;1712098;83;20250;-74
2021/11/23 06:47:17;;;;;;;;;;;;;;;0.47;81.66;101398.11;1718405;83;20183;-74
2021/11/23 06:49:43;;;;;;;;;;;;;;;0.50;81.69;101397.94;1713223;83;20175;-74
2021/11/23 06:52:09;;;;;;;;;;;;;;;0.52;81.73;101400.95;1720710;83;20234;-74
2021/11/23 06:54:35;;;;;;;;;;;;;;;0.56;81.74;101400.72;1718186;83;22037;-74
2021/11/23 06:57:01;;;;;;;;;;;;;;;0.56;81.77;101408.59;1718662;83;20196;-73
2021/11/23 06:59:26;;;;;;;;;;;;;;;0.59;81.81;101406.27;1726566;81;20282;-75
2021/11/23 07:01:52;;;;;;;;;;;;;;;0.61;81.83;101397.37;1731709;81;20173;-75
2021/11/23 07:04:18;;;;;;;;;;;;;;;0.63;81.87;101395.98;1727721;82;20229;-75
2021/11/23 07:06:45;;;;;;;;;;;;;;;0.64;81.90;101397.66;1724062;82;21795;-75
2021/11/23 07:09:11;;;;;;;;;;;;;;;0.62;81.91;101392.97;1734402;82;20394;-75
2021/11/23 07:11:37;;;;;;;;;;;;;;;0.65;81.96;101399.36;1730315;82;20466;-75
2021/11/23 07:14:06;;;;;;;;;;;;;;;0.65;82.01;101400.22;1740853;82;20173;-75
2021/11/23 07:16:30;;;;;;;;;;;;;;;0.66;82.05;101403.23;1680349;83;20458;-73
2021/11/23 07:18:56;;;;;;;;;;;;;;;0.68;82.09;101418.88;1662411;85;21299;-73
2021/11/23 07:21:22;;;;;;;;;;;;;;;0.67;82.14;101411.47;1686246;85;20237;-73
2021/11/23 07:23:48;;;;;;;;;;;;;;;0.66;82.17;101426.86;1719203;82;20219;-73
2021/11/23 07:26:14;;;;;;;;;;;;;;;0.68;82.21;101426.75;1716560;82;20172;-73
2021/11/23 07:28:40;;;;;;;;;;;;;;;0.67;82.25;101429.02;1719860;82;20195;-73
2021/11/23 07:31:05;;;;;;;;;;;;;;;0.67;82.28;101438.20;1718811;82;20831;-72
2021/11/23 07:33:31;;;;;;;;;;;;;;;0.67;82.35;101431.64;1717998;82;20179;-74
2021/11/23 07:35:57;;;;;;;;;;;;;;;0.67;82.40;101427.22;1718682;83;20208;-74
2021/11/23 07:38:23;;;;;;;;;;;;;;;0.68;82.43;101422.36;1717315;83;20477;-74
2021/11/23 07:40:49;;;;;;;;;;;;;;;0.69;82.51;101420.13;1736830;82;20198;-72
2021/11/23 07:43:15;;;;;;;;;;;;;;;0.72;82.55;101423.04;1749781;82;21147;-74
2021/11/23 07:45:40;;;;;;;;;;;;;;;0.74;82.61;101417.27;1717847;83;20282;-74
2021/11/23 07:48:06;;;;;;;;;;;;;;;0.77;82.67;101428.91;1718279;82;20191;-73
2021/11/23 07:50:32;;;;;;;;;;;;;;;0.79;82.71;101428.34;1715070;82;20203;-73
2021/11/23 07:52:58;;;;;;;;;;;;;;;0.80;82.77;101426.11;1749218;82;20166;-73
2021/11/23 07:55:24;;;;;;;;;;;;;;;0.80;82.83;101426.97;1714037;81;21238;-74
2021/11/23 07:57:49;;;;;;;;;;;;;;;0.83;82.90;101437.76;1719067;82;20230;-74
2021/11/23 08:00:15;;;;;;;;;;;;;;;0.84;82.96;101440.77;1717105;82;20266;-74
2021/11/23 08:02:41;;;;;;;;;;;;;;;0.84;83.04;101439.46;1712767;82;20247;-74
2021/11/23 08:05:07;;;;;;;;;;;;;;;0.86;83.10;101445.00;1699324;83;20176;-74
2021/11/23 08:07:33;;;;;;;;;;;;;;;0.90;83.16;101450.94;1705827;83;21137;-74
2021/11/23 08:09:59;;;;;;;;;;;;;;;0.95;83.20;101448.92;1711313;84;20244;-73
2021/11/23 08:12:25;;;;;;;;;;;;;;;0.98;83.26;101441.73;1696606;83;20250;-75
2021/11/23 08:14:50;;;;;;;;;;;;;;;1.03;83.31;101441.45;1689554;83;20236;-74
2021/11/23 08:17:16;;;;;;;;;;;;;;;1.08;83.37;101443.37;1706213;83;20237;-74
2021/11/23 08:19:42;;;;;;;;;;;;;;;1.12;83.43;101454.11;1686827;84;21188;-75
2021/11/23 08:22:08;;;;;;;;;;;;;;;1.16;83.50;101445.59;1687517;83;20234;-74
2021/11/23 08:24:33;;;;;;;;;;;;;;;1.19;83.54;101451.52;1683423;83;20210;-74
2021/11/23 08:27:00;;;;;;;;;;;;;;;1.26;83.59;101450.72;1683487;83;20201;-73
2021/11/23 08:29:26;;;;;;;;;;;;;;;1.36;83.66;101450.13;1681608;83;20215;-74
2021/11/23 08:31:53;;;;;;;;;;;;;;;1.41;83.71;101440.18;1683732;83;21256;-74
2021/11/23 08:34:21;;;;;;;;;;;;;;;1.49;83.76;101441.92;1678861;85;20468;-74
2021/11/23 08:36:46;;;;;;;;;;;;;;;1.56;83.83;101448.14;1682185;83;20215;-74
2021/11/23 08:39:12;;;;;;;;;;;;;;;1.59;83.87;101448.81;1685323;83;20179;-74
2021/11/23 08:41:38;;;;;;;;;;;;;;;1.62;83.93;101443.37;1684930;83;20253;-74
2021/11/23 08:44:04;;;;;;;;;;;;;;;1.67;83.98;101437.86;1683698;83;21042;-74
2021/11/23 08:46:30;;;;;;;;;;;;;;;1.70;84.02;101436.37;1686753;83;20328;-72
2021/11/23 08:48:56;;;;;;;;;;;;;;;1.79;84.10;101431.91;1683264;83;20221;-74
2021/11/23 08:51:25;;;;;;;;;;;;;;;1.81;84.13;101437.92;1682926;83;20174;-74
2021/11/23 08:53:49;;;;;;;;;;;;;;;1.86;84.17;101434.56;1680829;84;20186;-74
2021/11/23 08:56:15;;;;;;;;;;;;;;;1.92;84.24;101438.15;1684889;83;21251;-74
2021/11/23 08:58:42;;;;;;;;;;;;;;;1.98;84.28;101431.20;1682471;83;20925;-74
2021/11/23 09:01:08;;;;;;;;;;;;;;;2.05;84.35;101428.59;1679590;83;20194;-74
2021/11/23 09:03:34;;;;;;;;;;;;;;;2.08;84.36;101425.78;1718732;83;20206;-75
2021/11/23 09:06:00;;;;;;;;;;;;;;;2.10;84.41;101423.92;1720473;83;20196;-74
2021/11/23 09:08:26;;;;;;;;;;;;;;;2.15;84.45;101424.48;1714903;82;21055;-74
2021/11/23 09:10:52;;;;;;;;;;;;;;;2.22;84.48;101425.80;1719307;83;20512;-75
2021/11/23 09:13:18;;;;;;;;;;;;;;;2.27;84.51;101442.18;1719617;83;20183;-74
2021/11/23 09:15:44;;;;;;;;;;;;;;;2.27;84.53;101471.13;1719705;83;20206;-74
2021/11/23 09:18:10;;;;;;;;;;;;;;;2.29;84.57;101471.88;1720131;83;20278;-74
2021/11/23 09:20:36;;;;;;;;;;;;;;;2.28;84.60;101483.36;1713789;83;21039;-74
2021/11/23 09:23:08;;;;;;;;;;;;;;;2.28;84.61;101485.14;1715797;83;20181;-74
2021/11/23 09:25:35;;;;;;;;;;;;;;;2.27;84.63;101488.23;1716717;83;20204;-74
2021/11/23 09:28:01;;;;;;;;;;;;;;;2.33;84.63;101491.81;1718709;83;20633;-74
2021/11/23 09:30:29;;;;;;;;;;;;;;;2.35;84.63;101485.16;1712739;82;20192;-74
2021/11/23 09:32:55;;;;;;;;;;;;;;;2.34;84.66;101478.19;1710812;83;21063;-74
2021/11/23 09:35:22;;;;;;;;;;;;;;;2.33;84.65;101481.28;1673855;83;20202;-74
2021/11/23 09:37:48;;;;;;;;;;;;;;;2.34;84.66;101471.14;1648388;84;20520;-74
2021/11/23 09:40:14;;;;;;;;;;;;;;;2.32;84.70;101479.58;1717314;83;20153;-74
2021/11/23 09:42:39;;;;;;;;;;;;;;;2.32;84.70;101490.11;1714411;82;20159;-74
2021/11/23 09:45:06;;;;;;;;;;;;;;;2.33;84.71;101499.70;1715997;82;21143;-74
2021/11/23 09:47:33;;;;;;;;;;;;;;;2.36;84.73;101496.04;1724914;81;20863;-74
2021/11/23 09:50:00;;;;;;;;;;;;;;;2.39;84.75;101484.86;1693305;83;20195;-74
2021/11/23 09:52:26;;;;;;;;;;;;;;;2.42;84.75;101472.86;1657914;86;20173;-72
2021/11/23 09:54:52;;;;;;;;;;;;;;;2.43;84.76;101481.11;1716799;82;20191;-74
2021/11/23 09:57:18;;;;;;;;;;;;;;;2.43;84.77;101483.74;1709566;82;21905;-74
2021/11/23 09:59:44;;;;;;;;;;;;;;;2.44;84.77;101492.03;1720161;82;20253;-75
2021/11/23 10:02:09;;;;;;;;;;;;;;;2.45;84.79;101495.05;1717292;82;20202;-74
2021/11/23 10:04:37;;;;;;;;;;;;;;;2.46;84.79;101499.34;1729807;81;20187;-75
2021/11/23 10:07:08;;;;;;;;;;;;;;;2.47;84.80;101494.47;1729395;81;20223;-75
2021/11/23 10:09:39;;;;;;;;;;;;;;;2.47;84.80;101486.58;1732888;81;21250;-73
2021/11/23 10:12:22;;;;;;;;;;;;;;;2.48;84.81;101497.49;1734246;81;20171;-74
2021/11/23 10:15:10;;;;;;;;;;;;;;;2.51;84.84;101493.36;1725735;82;20174;-74
2021/11/23 10:17:37;;;;;;;;;;;;;;;2.57;84.85;101487.36;1734284;82;20188;-73
2021/11/23 10:20:05;;;;;;;;;;;;;;;2.63;84.85;101489.15;1734285;82;20199;-73
2021/11/23 10:22:36;;;;;;;;;;;;;;;2.67;84.85;101481.91;1730292;82;21136;-74
2021/11/23 10:25:07;;;;;;;;;;;;;;;2.69;84.86;101480.02;1732575;82;20171;-74
2021/11/23 10:27:33;;;;;;;;;;;;;;;2.69;84.85;101483.97;1732789;81;20892;-74
2021/11/23 10:30:00;;;;;;;;;;;;;;;2.69;84.88;101483.97;1724359;82;20169;-74
2021/11/23 10:32:27;;;;;;;;;;;;;;;2.71;84.90;101488.20;1727838;82;20196;-74
2021/11/23 10:34:53;;;;;;;;;;;;;;;2.72;84.90;101484.63;1706096;82;21926;-74
2021/11/23 10:37:32;;;;;;;;;;;;;;;2.75;84.93;101480.95;1735849;82;20394;-74
2021/11/23 10:40:19;;;;;;;;;;;;;;;2.75;84.92;101482.27;1736682;82;20436;-74
2021/11/23 10:42:56;;;;;;;;;;;;;;;2.77;84.94;101488.31;1736327;82;20184;-74
2021/11/23 10:45:22;;;;;;;;;;;;;;;2.80;84.93;101483.70;1735809;82;20591;-73
2021/11/23 10:47:50;;;;;;;;;;;;;;;2.83;84.96;101483.97;1735491;82;21205;-73
2021/11/23 10:50:19;;;;;;;;;;;;;;;2.82;84.96;101469.95;1736595;82;20187;-74
2021/11/23 10:52:49;;;;;;;;;;;;;;;2.84;84.97;101471.19;1743305;82;20162;-73
2021/11/23 10:55:19;;;;;;;;;;;;;;;2.88;84.98;101467.43;1752171;82;20197;-74
2021/11/23 10:57:44;;;;;;;;;;;;;;;2.88;84.99;101469.60;1736817;81;20156;-74
2021/11/23 11:00:11;;;;;;;;;;;;;;;2.91;85.00;101467.23;1736949;81;21232;-73
2021/11/23 11:02:40;;;;;;;;;;;;;;;2.90;85.01;101455.00;1732347;81;20168;-73
2021/11/23 11:05:12;;;;;;;;;;;;;;;2.91;85.02;101460.66;1720415;83;20251;-73
2021/11/23 11:07:38;;;;;;;;;;;;;;;2.92;85.04;101461.04;1722584;83;20200;-74
2021/11/23 11:10:05;;;;;;;;;;;;;;;2.96;85.06;101462.52;1723568;82;20166;-73
2021/11/23 11:12:31;;;;;;;;;;;;;;;2.99;85.08;101467.62;1715303;83;21090;-73
2021/11/23 11:14:58;;;;;;;;;;;;;;;3.02;85.09;101463.47;1713968;83;20158;-73
2021/11/23 11:17:24;;;;;;;;;;;;;;;3.05;85.11;101464.59;1720043;82;20165;-73
2021/11/23 11:19:51;;;;;;;;;;;;;;;3.07;85.11;101469.28;1720816;83;20677;-74
2021/11/23 11:22:19;;;;;;;;;;;;;;;3.09;85.14;101471.37;1722021;83;20185;-73
2021/11/23 11:25:23;;;;;;;;;;;;;;;3.12;85.14;101475.13;1719686;83;21152;-74
2021/11/23 11:27:47;;;;;;;;;;;;;;;3.15;85.18;101476.25;1716423;83;20471;-75
2021/11/23 11:30:31;;;;;;;;;;;;;;;3.18;85.21;101478.69;1721186;83;20177;-75
2021/11/23 11:33:01;;;;;;;;;;;;;;;3.16;85.23;101485.86;1655669;85;20316;-75
2021/11/23 11:35:29;;;;;;;;;;;;;;;3.14;85.22;101486.88;1660472;84;20239;-75
2021/11/23 11:37:57;;;;;;;;;;;;;;;3.12;85.26;101487.45;1680121;84;21906;-75
2021/11/23 11:40:26;;;;;;;;;;;;;;;3.07;85.28;101486.41;1663889;84;20185;-75
2021/11/23 11:42:56;;;;;;;;;;;;;;;3.06;85.31;101487.84;1721756;83;20558;-74
2021/11/23 11:45:24;;;;;;;;;;;;;;;3.05;85.30;101480.41;1720434;83;20168;-74
2021/11/23 11:47:51;;;;;;;;;;;;;;;3.05;85.34;101467.23;1720671;83;20172;-74
2021/11/23 11:50:19;;;;;;;;;;;;;;;3.05;85.37;101472.96;1720568;83;21340;-74
2021/11/23 11:53:01;;;;;;;;;;;;;;;3.06;85.38;101479.47;1721606;83;20196;-74
2021/11/23 11:55:28;;;;;;;;;;;;;;;3.09;85.42;101474.00;1721898;82;20223;-74
2021/11/23 11:57:56;;;;;;;;;;;;;;;3.11;85.45;101469.47;1721966;83;20470;-74
2021/11/23 12:00:28;;;;;;;;;;;;;;;3.14;85.47;101478.50;1721505;82;20161;-74
2021/11/23 12:02:54;;;;;;;;;;;;;;;3.17;85.49;101473.03;1722283;81;21159;-74
2021/11/23 12:05:20;;;;;;;;;;;;;;;3.20;85.52;101473.33;1726169;83;20215;-74
2021/11/23 12:07:51;;;;;;;;;;;;;;;3.23;85.55;101466.55;1733176;81;20256;-74
2021/11/23 12:10:28;;;;;;;;;;;;;;;3.22;85.58;101467.02;1749103;82;20532;-74
2021/11/23 12:13:00;;;;;;;;;;;;;;;3.25;85.61;101458.91;1748507;81;20489;-74
2021/11/23 12:15:47;;;;;;;;;;;;;;;3.27;85.63;101464.09;1745741;82;21726;-74
2021/11/23 12:18:41;;;;;;;;;;;;;;;3.29;85.66;101472.27;1721759;83;20162;-74
2021/11/23 12:21:11;;;;;;;;;;;;;;;3.30;85.69;101475.30;1716559;83;20179;-74
2021/11/23 12:23:38;;;;;;;;;;;;;;;3.33;85.70;101468.97;1717689;83;20157;-74
2021/11/23 12:26:12;;;;;;;;;;;;;;;3.35;85.75;101469.70;1697858;83;20214;-74
2021/11/23 12:28:38;;;;;;;;;;;;;;;3.35;85.76;101473.19;1726248;83;21153;-74
2021/11/23 12:31:11;;;;;;;;;;;;;;;3.37;85.79;101466.52;1725338;83;20214;-74
2021/11/23 12:33:46;;;;;;;;;;;;;;;3.36;85.80;101478.84;1739147;82;20187;-74
2021/11/23 12:36:15;;;;;;;;;;;;;;;3.36;85.84;101477.53;1737920;82;20175;-74
2021/11/23 12:38:41;;;;;;;;;;;;;;;3.37;85.87;101479.23;1738825;82;20185;-74
2021/11/23 12:41:13;;;;;;;;;;;;;;;3.39;85.88;101481.28;1738934;82;21349;-74
2021/11/23 12:43:39;;;;;;;;;;;;;;;3.39;85.88;101487.87;1739872;81;20168;-74
2021/11/23 12:46:09;;;;;;;;;;;;;;;3.39;85.92;101489.20;1756448;81;20272;-74